RYR7VV EICK-LERS
Flight info
| Callsign | RYR7VV |
|---|---|
| Flight time | 2h 4m |
| Altitude | 37000 |
| Route | ORTOM1P ORTOM DCT TUVEN DCT TULTA/N0442F370 DCT TURDO DCT INCEF DCT NENEM P152 PPN DCT TURPU DCT GOSVI DCT RONKO M601 POSSY |
| Aircraft | B38M/M-SADE3FGILRWY/SB1 |
Departure
| Time | 2026-04-21 06:11 |
|---|---|
| Airport | Cork International Airport (EICK) |
Arrival
| Time | 2026-04-21 08:15 |
|---|---|
| Airport | Reus Airport (LERS) |
| Time | Latitude | Longitude | Altitude | Speed | Heading |
|---|---|---|---|---|---|
| 2026-04-21 05:59 | 51.84848 | -8.49051 | 505 ft | 0 kts | 70° |
| 2026-04-21 06:04 | 51.84847 | -8.49058 | 505 ft | 3 kts | 70° |
| 2026-04-21 06:04 | 51.84837 | -8.49098 | 505 ft | 4 kts | 69° |
| 2026-04-21 06:05 | 51.84829 | -8.49139 | 505 ft | 4 kts | 71° |
| 2026-04-21 06:05 | 51.84817 | -8.49178 | 505 ft | 4 kts | 52° |
| 2026-04-21 06:05 | 51.84798 | -8.49203 | 505 ft | 4 kts | 14° |
| 2026-04-21 06:05 | 51.84782 | -8.49204 | 505 ft | 1 kts | 349° |
| 2026-04-21 06:06 | 51.84779 | -8.49203 | 505 ft | 0 kts | 349° |
| 2026-04-21 06:09 | 51.84821 | -8.49217 | 505 ft | 14 kts | 349° |
| 2026-04-21 06:09 | 51.84940 | -8.49267 | 505 ft | 19 kts | 341° |
| 2026-04-21 06:10 | 51.85074 | -8.49343 | 505 ft | 21 kts | 342° |
| 2026-04-21 06:10 | 51.85122 | -8.49477 | 500 ft | 19 kts | 230° |
| 2026-04-21 06:10 | 51.84996 | -8.49595 | 489 ft | 23 kts | 207° |
| 2026-04-21 06:10 | 51.84862 | -8.49541 | 488 ft | 34 kts | 159° |
| 2026-04-21 06:11 | 51.84357 | -8.49237 | 488 ft | 121 kts | 159° |
| 2026-04-21 06:11 | 51.83368 | -8.48612 | 716 ft | 168 kts | 157° |
| 2026-04-21 06:11 | 51.82219 | -8.48009 | 1628 ft | 174 kts | 156° |
| 2026-04-21 06:11 | 51.81052 | -8.47436 | 2427 ft | 183 kts | 156° |
| 2026-04-21 06:12 | 51.79732 | -8.46856 | 2814 ft | 211 kts | 163° |
| 2026-04-21 06:12 | 51.78200 | -8.46391 | 3350 ft | 235 kts | 164° |
| 2026-04-21 06:12 | 51.76540 | -8.45880 | 4220 ft | 247 kts | 163° |
| 2026-04-21 06:12 | 51.74871 | -8.45354 | 5368 ft | 249 kts | 163° |
| 2026-04-21 06:13 | 51.73158 | -8.44810 | 6453 ft | 252 kts | 164° |
| 2026-04-21 06:13 | 51.71419 | -8.44251 | 7440 ft | 258 kts | 164° |
| 2026-04-21 06:13 | 51.69640 | -8.43672 | 8409 ft | 263 kts | 166° |
| 2026-04-21 06:13 | 51.67829 | -8.43084 | 9418 ft | 266 kts | 165° |
| 2026-04-21 06:14 | 51.66004 | -8.42487 | 10378 ft | 272 kts | 167° |
| 2026-04-21 06:14 | 51.64090 | -8.41864 | 10921 ft | 290 kts | 167° |
| 2026-04-21 06:14 | 51.62047 | -8.41203 | 11454 ft | 308 kts | 168° |
| 2026-04-21 06:14 | 51.59906 | -8.40509 | 12130 ft | 318 kts | 168° |
| 2026-04-21 06:15 | 51.57719 | -8.39801 | 12972 ft | 324 kts | 169° |
| 2026-04-21 06:15 | 51.55480 | -8.39075 | 13753 ft | 332 kts | 169° |
| 2026-04-21 06:15 | 51.53196 | -8.38335 | 14538 ft | 337 kts | 169° |
| 2026-04-21 06:15 | 51.50912 | -8.37598 | 15316 ft | 341 kts | 171° |
| 2026-04-21 06:16 | 51.48564 | -8.36836 | 16031 ft | 348 kts | 171° |
| 2026-04-21 06:16 | 51.46174 | -8.36067 | 16837 ft | 351 kts | 172° |
| 2026-04-21 06:16 | 51.43763 | -8.35288 | 17566 ft | 357 kts | 173° |
| 2026-04-21 06:16 | 51.41307 | -8.34500 | 18315 ft | 361 kts | 173° |
| 2026-04-21 06:17 | 51.38831 | -8.33703 | 18993 ft | 365 kts | 173° |
| 2026-04-21 06:17 | 51.36329 | -8.32899 | 19632 ft | 368 kts | 173° |
| 2026-04-21 06:17 | 51.33809 | -8.32092 | 20278 ft | 371 kts | 173° |
| 2026-04-21 06:17 | 51.31268 | -8.31278 | 20903 ft | 374 kts | 173° |
| 2026-04-21 06:18 | 51.28706 | -8.30458 | 21524 ft | 377 kts | 174° |
| 2026-04-21 06:18 | 51.26113 | -8.29812 | 22125 ft | 377 kts | 179° |
| 2026-04-21 06:18 | 51.23486 | -8.29367 | 22720 ft | 381 kts | 179° |
| 2026-04-21 06:18 | 51.20843 | -8.28893 | 23324 ft | 384 kts | 179° |
| 2026-04-21 06:19 | 51.18179 | -8.28401 | 23896 ft | 387 kts | 179° |
| 2026-04-21 06:19 | 51.15523 | -8.27904 | 24376 ft | 390 kts | 179° |
| 2026-04-21 06:19 | 51.12818 | -8.27396 | 24871 ft | 392 kts | 179° |
| 2026-04-21 06:19 | 51.10094 | -8.26884 | 25358 ft | 395 kts | 179° |
| 2026-04-21 06:20 | 51.07357 | -8.26370 | 25822 ft | 398 kts | 179° |
| 2026-04-21 06:20 | 51.04600 | -8.25853 | 26302 ft | 400 kts | 179° |
| 2026-04-21 06:20 | 51.01826 | -8.25333 | 26762 ft | 402 kts | 178° |
| 2026-04-21 06:20 | 50.99035 | -8.24939 | 27220 ft | 402 kts | 181° |
| 2026-04-21 06:21 | 50.96232 | -8.24667 | 27655 ft | 405 kts | 181° |
| 2026-04-21 06:21 | 50.93411 | -8.24373 | 28100 ft | 408 kts | 181° |
| 2026-04-21 06:21 | 50.90569 | -8.24068 | 28534 ft | 410 kts | 181° |
| 2026-04-21 06:21 | 50.87714 | -8.23760 | 28958 ft | 413 kts | 181° |
| 2026-04-21 06:22 | 50.84873 | -8.23453 | 29374 ft | 415 kts | 181° |
| 2026-04-21 06:22 | 50.81985 | -8.23141 | 29784 ft | 417 kts | 181° |
| 2026-04-21 06:22 | 50.79076 | -8.22827 | 30184 ft | 420 kts | 181° |
| 2026-04-21 06:22 | 50.76149 | -8.22511 | 30527 ft | 422 kts | 181° |
| 2026-04-21 06:23 | 50.73207 | -8.22194 | 30855 ft | 425 kts | 181° |
| 2026-04-21 06:23 | 50.70250 | -8.21875 | 31184 ft | 427 kts | 181° |
| 2026-04-21 06:23 | 50.67270 | -8.21555 | 31498 ft | 429 kts | 181° |
| 2026-04-21 06:23 | 50.64285 | -8.21234 | 31833 ft | 431 kts | 181° |
| 2026-04-21 06:24 | 50.61283 | -8.20913 | 32138 ft | 433 kts | 181° |
| 2026-04-21 06:24 | 50.58263 | -8.20589 | 32422 ft | 436 kts | 181° |
| 2026-04-21 06:24 | 50.55231 | -8.20265 | 32765 ft | 437 kts | 180° |
| 2026-04-21 06:24 | 50.52194 | -8.19941 | 33081 ft | 439 kts | 180° |
| 2026-04-21 06:25 | 50.49136 | -8.19615 | 33371 ft | 441 kts | 180° |
| 2026-04-21 06:25 | 50.46066 | -8.19288 | 33698 ft | 443 kts | 180° |
| 2026-04-21 06:25 | 50.42995 | -8.18961 | 34106 ft | 442 kts | 180° |
| 2026-04-21 06:25 | 50.39926 | -8.18635 | 34459 ft | 441 kts | 180° |
| 2026-04-21 06:26 | 50.36900 | -8.18313 | 34774 ft | 441 kts | 180° |
| 2026-04-21 06:26 | 50.33831 | -8.17989 | 35069 ft | 442 kts | 180° |
| 2026-04-21 06:26 | 50.30760 | -8.17663 | 35368 ft | 442 kts | 180° |
| 2026-04-21 06:26 | 50.27692 | -8.17339 | 35682 ft | 442 kts | 180° |
| 2026-04-21 06:27 | 50.24627 | -8.17016 | 35994 ft | 442 kts | 180° |
| 2026-04-21 06:27 | 50.21555 | -8.16692 | 36285 ft | 442 kts | 180° |
| 2026-04-21 06:27 | 50.18484 | -8.16369 | 36587 ft | 441 kts | 180° |
| 2026-04-21 06:27 | 50.15415 | -8.16046 | 36869 ft | 441 kts | 180° |
| 2026-04-21 06:28 | 50.12351 | -8.15723 | 37106 ft | 442 kts | 181° |
| 2026-04-21 06:28 | 50.06208 | -8.15080 | 37139 ft | 440 kts | 179° |
| 2026-04-21 06:29 | 50.00141 | -8.14447 | 37146 ft | 440 kts | 181° |
| 2026-04-21 06:29 | 49.94029 | -8.13809 | 37139 ft | 440 kts | 180° |
| 2026-04-21 06:30 | 49.87914 | -8.13173 | 37134 ft | 440 kts | 180° |
| 2026-04-21 06:30 | 49.81778 | -8.12535 | 37137 ft | 441 kts | 181° |
| 2026-04-21 06:31 | 49.75662 | -8.11903 | 37128 ft | 441 kts | 180° |
| 2026-04-21 06:31 | 49.69543 | -8.11272 | 37128 ft | 440 kts | 181° |
| 2026-04-21 06:32 | 49.63466 | -8.10645 | 37121 ft | 440 kts | 180° |
| 2026-04-21 06:32 | 49.57352 | -8.10017 | 37121 ft | 440 kts | 180° |
| 2026-04-21 06:33 | 49.51255 | -8.09393 | 37108 ft | 438 kts | 180° |
| 2026-04-21 06:33 | 49.45160 | -8.08770 | 37110 ft | 438 kts | 180° |
| 2026-04-21 06:34 | 49.39095 | -8.08151 | 37094 ft | 436 kts | 180° |
| 2026-04-21 06:34 | 49.33028 | -8.07535 | 37092 ft | 437 kts | 181° |
| 2026-04-21 06:35 | 49.26968 | -8.06920 | 37093 ft | 436 kts | 180° |
| 2026-04-21 06:35 | 49.20952 | -8.06311 | 37085 ft | 434 kts | 180° |
| 2026-04-21 06:36 | 49.14935 | -8.05704 | 37082 ft | 433 kts | 180° |
| 2026-04-21 06:36 | 49.08916 | -8.05099 | 37086 ft | 433 kts | 180° |
| 2026-04-21 06:37 | 49.02901 | -8.04494 | 37075 ft | 433 kts | 180° |
| 2026-04-21 06:37 | 48.97900 | -8.03993 | 37071 ft | 432 kts | 180° |
| 2026-04-21 06:38 | 48.91907 | -8.03393 | 37079 ft | 431 kts | 180° |
| 2026-04-21 06:38 | 48.85909 | -8.02795 | 37067 ft | 431 kts | 180° |
| 2026-04-21 06:39 | 48.79914 | -8.02199 | 37050 ft | 431 kts | 180° |
| 2026-04-21 06:39 | 48.73974 | -8.01608 | 37055 ft | 429 kts | 180° |
| 2026-04-21 06:40 | 48.68017 | -8.01018 | 37063 ft | 429 kts | 180° |
| 2026-04-21 06:40 | 48.62060 | -8.00429 | 37054 ft | 429 kts | 180° |
| 2026-04-21 06:41 | 48.56252 | -7.98340 | 37053 ft | 439 kts | 155° |
| 2026-04-21 06:41 | 48.50953 | -7.93610 | 37037 ft | 444 kts | 153° |
| 2026-04-21 06:42 | 48.45676 | -7.88757 | 37048 ft | 444 kts | 152° |
| 2026-04-21 06:42 | 48.40412 | -7.83862 | 37047 ft | 444 kts | 152° |
| 2026-04-21 06:43 | 48.35158 | -7.78979 | 37037 ft | 442 kts | 152° |
| 2026-04-21 06:43 | 48.29925 | -7.74128 | 37033 ft | 442 kts | 152° |
| 2026-04-21 06:44 | 48.24663 | -7.69261 | 37041 ft | 446 kts | 153° |
| 2026-04-21 06:44 | 48.19406 | -7.64410 | 37030 ft | 445 kts | 152° |
| 2026-04-21 06:45 | 48.14125 | -7.59551 | 37026 ft | 445 kts | 153° |
| 2026-04-21 06:45 | 48.08851 | -7.54707 | 37031 ft | 444 kts | 153° |
| 2026-04-21 06:46 | 48.03573 | -7.49874 | 37020 ft | 444 kts | 153° |
| 2026-04-21 06:46 | 47.98325 | -7.45078 | 37023 ft | 444 kts | 153° |
| 2026-04-21 06:47 | 47.93065 | -7.40284 | 37017 ft | 441 kts | 153° |
| 2026-04-21 06:47 | 47.87826 | -7.35521 | 37018 ft | 441 kts | 153° |
| 2026-04-21 06:48 | 47.82579 | -7.30761 | 37017 ft | 441 kts | 153° |
| 2026-04-21 06:48 | 47.77335 | -7.26015 | 37000 ft | 441 kts | 153° |
| 2026-04-21 06:49 | 47.72103 | -7.21293 | 37006 ft | 440 kts | 153° |
| 2026-04-21 06:49 | 47.66867 | -7.16577 | 37008 ft | 440 kts | 153° |
| 2026-04-21 06:50 | 47.61631 | -7.11872 | 36990 ft | 442 kts | 153° |
| 2026-04-21 06:50 | 47.56346 | -7.07135 | 36996 ft | 443 kts | 153° |
| 2026-04-21 06:51 | 47.51114 | -7.02454 | 36998 ft | 441 kts | 153° |
| 2026-04-21 06:51 | 47.45853 | -6.97757 | 36995 ft | 442 kts | 153° |
| 2026-04-21 06:52 | 47.40880 | -6.92336 | 36992 ft | 445 kts | 147° |
| 2026-04-21 06:52 | 47.35909 | -6.86910 | 36989 ft | 443 kts | 148° |
| 2026-04-21 06:53 | 47.30944 | -6.81541 | 36985 ft | 442 kts | 148° |
| 2026-04-21 06:53 | 47.25981 | -6.76190 | 36983 ft | 442 kts | 148° |
| 2026-04-21 06:54 | 47.21040 | -6.70875 | 36988 ft | 442 kts | 148° |
| 2026-04-21 06:54 | 47.16074 | -6.65546 | 36974 ft | 441 kts | 148° |
| 2026-04-21 06:55 | 47.11116 | -6.60238 | 36977 ft | 440 kts | 148° |
| 2026-04-21 06:55 | 47.06146 | -6.54930 | 36982 ft | 444 kts | 148° |
| 2026-04-21 06:56 | 47.01130 | -6.49585 | 36978 ft | 445 kts | 148° |
| 2026-04-21 06:56 | 46.96126 | -6.44266 | 36978 ft | 443 kts | 148° |
| 2026-04-21 06:57 | 46.91170 | -6.39010 | 36972 ft | 442 kts | 148° |
| 2026-04-21 06:57 | 46.86181 | -6.33733 | 36972 ft | 442 kts | 148° |
| 2026-04-21 06:58 | 46.81191 | -6.28465 | 36972 ft | 442 kts | 148° |
| 2026-04-21 06:58 | 46.76193 | -6.23202 | 36966 ft | 441 kts | 148° |
| 2026-04-21 06:59 | 46.71211 | -6.17968 | 36966 ft | 441 kts | 148° |
| 2026-04-21 06:59 | 46.66231 | -6.12747 | 36969 ft | 441 kts | 148° |
| 2026-04-21 07:00 | 46.61270 | -6.07560 | 36966 ft | 441 kts | 149° |
| 2026-04-21 07:00 | 46.56263 | -6.02336 | 36966 ft | 445 kts | 148° |
| 2026-04-21 07:01 | 46.51219 | -5.97085 | 36963 ft | 445 kts | 148° |
| 2026-04-21 07:01 | 46.43656 | -5.89236 | 36961 ft | 445 kts | 149° |
| 2026-04-21 07:02 | 46.38648 | -5.84053 | 36954 ft | 444 kts | 149° |
| 2026-04-21 07:02 | 46.33620 | -5.78862 | 36952 ft | 443 kts | 149° |
| 2026-04-21 07:03 | 46.28591 | -5.73682 | 36960 ft | 443 kts | 149° |
| 2026-04-21 07:03 | 46.23567 | -5.68518 | 36955 ft | 443 kts | 149° |
| 2026-04-21 07:04 | 46.18539 | -5.63362 | 36948 ft | 442 kts | 149° |
| 2026-04-21 07:04 | 46.13524 | -5.58232 | 36949 ft | 442 kts | 149° |
| 2026-04-21 07:05 | 46.08517 | -5.53121 | 36953 ft | 445 kts | 149° |
| 2026-04-21 07:05 | 46.03456 | -5.47966 | 36938 ft | 445 kts | 149° |
| 2026-04-21 07:06 | 45.98393 | -5.42822 | 36947 ft | 445 kts | 149° |
| 2026-04-21 07:06 | 45.93335 | -5.37695 | 36944 ft | 445 kts | 149° |
| 2026-04-21 07:07 | 45.88266 | -5.32567 | 36945 ft | 445 kts | 149° |
| 2026-04-21 07:07 | 45.83240 | -5.27495 | 36931 ft | 444 kts | 149° |
| 2026-04-21 07:08 | 45.78175 | -5.22395 | 36937 ft | 444 kts | 149° |
| 2026-04-21 07:08 | 45.73115 | -5.17312 | 36939 ft | 444 kts | 149° |
| 2026-04-21 07:09 | 45.68057 | -5.12240 | 36935 ft | 444 kts | 149° |
| 2026-04-21 07:09 | 45.62996 | -5.07177 | 36925 ft | 444 kts | 149° |
| 2026-04-21 07:10 | 45.57899 | -5.02088 | 36935 ft | 447 kts | 149° |
| 2026-04-21 07:10 | 45.52837 | -4.97043 | 36934 ft | 447 kts | 148° |
| 2026-04-21 07:11 | 45.48087 | -4.91249 | 36938 ft | 450 kts | 142° |
| 2026-04-21 07:11 | 45.43420 | -4.85320 | 36928 ft | 449 kts | 142° |
| 2026-04-21 07:12 | 45.38767 | -4.79404 | 36926 ft | 449 kts | 142° |
| 2026-04-21 07:12 | 45.34108 | -4.73492 | 36923 ft | 449 kts | 142° |
| 2026-04-21 07:13 | 45.29446 | -4.67591 | 36923 ft | 448 kts | 142° |
| 2026-04-21 07:13 | 45.24825 | -4.61754 | 36914 ft | 446 kts | 142° |
| 2026-04-21 07:14 | 45.20157 | -4.55872 | 36924 ft | 450 kts | 142° |
| 2026-04-21 07:14 | 45.15481 | -4.49993 | 36920 ft | 449 kts | 142° |
| 2026-04-21 07:15 | 45.10799 | -4.44120 | 36918 ft | 449 kts | 142° |
| 2026-04-21 07:15 | 45.06120 | -4.38265 | 36915 ft | 449 kts | 142° |
| 2026-04-21 07:16 | 45.01438 | -4.32418 | 36906 ft | 448 kts | 142° |
| 2026-04-21 07:16 | 44.96786 | -4.26623 | 36905 ft | 448 kts | 142° |
| 2026-04-21 07:17 | 44.92108 | -4.20808 | 36905 ft | 448 kts | 142° |
| 2026-04-21 07:17 | 44.87428 | -4.15003 | 36906 ft | 447 kts | 142° |
| 2026-04-21 07:18 | 44.82753 | -4.09218 | 36909 ft | 447 kts | 142° |
| 2026-04-21 07:18 | 44.78078 | -4.03446 | 36910 ft | 447 kts | 142° |
| 2026-04-21 07:19 | 44.73396 | -3.97679 | 36905 ft | 447 kts | 142° |
| 2026-04-21 07:19 | 44.68749 | -3.91968 | 36900 ft | 447 kts | 142° |
| 2026-04-21 07:20 | 44.64063 | -3.86221 | 36899 ft | 447 kts | 142° |
| 2026-04-21 07:20 | 44.59373 | -3.80480 | 36891 ft | 447 kts | 142° |
| 2026-04-21 07:21 | 44.54687 | -3.74759 | 36888 ft | 449 kts | 143° |
| 2026-04-21 07:21 | 44.49982 | -3.69028 | 36892 ft | 447 kts | 143° |
| 2026-04-21 07:22 | 44.45282 | -3.63314 | 36895 ft | 447 kts | 143° |
| 2026-04-21 07:22 | 44.40583 | -3.57616 | 36894 ft | 447 kts | 143° |
| 2026-04-21 07:23 | 44.35875 | -3.51918 | 36885 ft | 447 kts | 143° |
| 2026-04-21 07:23 | 44.31175 | -3.46243 | 36891 ft | 446 kts | 143° |
| 2026-04-21 07:24 | 44.26502 | -3.40612 | 36887 ft | 447 kts | 143° |
| 2026-04-21 07:24 | 44.21780 | -3.34935 | 36892 ft | 448 kts | 143° |
| 2026-04-21 07:25 | 44.17057 | -3.29268 | 36880 ft | 447 kts | 143° |
| 2026-04-21 07:25 | 44.13136 | -3.24571 | 36885 ft | 447 kts | 143° |
| 2026-04-21 07:26 | 44.08419 | -3.18932 | 36890 ft | 447 kts | 143° |
| 2026-04-21 07:26 | 44.03650 | -3.13392 | 36891 ft | 446 kts | 145° |
| 2026-04-21 07:27 | 43.98851 | -3.07986 | 36883 ft | 446 kts | 144° |
| 2026-04-21 07:27 | 43.94036 | -3.02554 | 36879 ft | 446 kts | 144° |
| 2026-04-21 07:28 | 43.89212 | -2.97121 | 36883 ft | 447 kts | 144° |
| 2026-04-21 07:28 | 43.84378 | -2.91689 | 36881 ft | 447 kts | 144° |
| 2026-04-21 07:29 | 43.79547 | -2.86272 | 36881 ft | 447 kts | 145° |
| 2026-04-21 07:29 | 43.74747 | -2.80901 | 36879 ft | 446 kts | 145° |
| 2026-04-21 07:30 | 43.69919 | -2.75512 | 36876 ft | 446 kts | 145° |
| 2026-04-21 07:30 | 43.65091 | -2.70139 | 36885 ft | 445 kts | 145° |
| 2026-04-21 07:31 | 43.60261 | -2.64776 | 36877 ft | 447 kts | 145° |
| 2026-04-21 07:31 | 43.55393 | -2.59383 | 36879 ft | 447 kts | 145° |
| 2026-04-21 07:32 | 43.50576 | -2.54057 | 36882 ft | 447 kts | 145° |
| 2026-04-21 07:32 | 43.45723 | -2.48703 | 36881 ft | 447 kts | 145° |
| 2026-04-21 07:33 | 43.40868 | -2.43359 | 36886 ft | 447 kts | 145° |
| 2026-04-21 07:33 | 43.36016 | -2.38029 | 36885 ft | 446 kts | 145° |
| 2026-04-21 07:34 | 43.31166 | -2.32713 | 36887 ft | 446 kts | 145° |
| 2026-04-21 07:34 | 43.26315 | -2.27406 | 36883 ft | 446 kts | 145° |
| 2026-04-21 07:35 | 43.21437 | -2.22082 | 36897 ft | 448 kts | 145° |
| 2026-04-21 07:35 | 43.16560 | -2.16769 | 36907 ft | 447 kts | 145° |
| 2026-04-21 07:36 | 43.11718 | -2.11504 | 36893 ft | 446 kts | 145° |
| 2026-04-21 07:36 | 43.06845 | -2.06221 | 36917 ft | 448 kts | 145° |
| 2026-04-21 07:37 | 43.01962 | -2.00938 | 36896 ft | 447 kts | 145° |
| 2026-04-21 07:37 | 42.97084 | -1.95671 | 36918 ft | 447 kts | 145° |
| 2026-04-21 07:38 | 42.92202 | -1.90410 | 36922 ft | 447 kts | 145° |
| 2026-04-21 07:38 | 42.87312 | -1.85146 | 36961 ft | 448 kts | 145° |
| 2026-04-21 07:39 | 42.82411 | -1.79881 | 36955 ft | 448 kts | 145° |
| 2026-04-21 07:39 | 42.77536 | -1.74653 | 36961 ft | 448 kts | 145° |
| 2026-04-21 07:40 | 42.73098 | -1.68697 | 36949 ft | 455 kts | 123° |
| 2026-04-21 07:40 | 42.70204 | -1.60984 | 36943 ft | 459 kts | 118° |
| 2026-04-21 07:41 | 42.67409 | -1.53175 | 36960 ft | 459 kts | 118° |
| 2026-04-21 07:41 | 42.64655 | -1.45388 | 36970 ft | 461 kts | 118° |
| 2026-04-21 07:42 | 42.61876 | -1.37533 | 36952 ft | 461 kts | 118° |
| 2026-04-21 07:42 | 42.59092 | -1.29681 | 36947 ft | 460 kts | 118° |
| 2026-04-21 07:43 | 42.56310 | -1.21856 | 36944 ft | 460 kts | 118° |
| 2026-04-21 07:43 | 42.53521 | -1.14035 | 36943 ft | 460 kts | 118° |
| 2026-04-21 07:44 | 42.50737 | -1.06247 | 36949 ft | 462 kts | 118° |
| 2026-04-21 07:44 | 42.47929 | -0.98410 | 36944 ft | 462 kts | 118° |
| 2026-04-21 07:45 | 42.45117 | -0.90582 | 36950 ft | 462 kts | 118° |
| 2026-04-21 07:45 | 42.42297 | -0.82754 | 36949 ft | 462 kts | 118° |
| 2026-04-21 07:46 | 42.39474 | -0.74946 | 36826 ft | 456 kts | 118° |
| 2026-04-21 07:46 | 42.38084 | -0.71109 | 36306 ft | 453 kts | 118° |
| 2026-04-21 07:46 | 42.36697 | -0.67288 | 35735 ft | 452 kts | 118° |
| 2026-04-21 07:47 | 42.35317 | -0.63487 | 35237 ft | 449 kts | 118° |
| 2026-04-21 07:47 | 42.33941 | -0.59706 | 34747 ft | 446 kts | 118° |
| 2026-04-21 07:47 | 42.32574 | -0.55950 | 34259 ft | 444 kts | 118° |
| 2026-04-21 07:47 | 42.31212 | -0.52213 | 33682 ft | 443 kts | 118° |
| 2026-04-21 07:48 | 42.29855 | -0.48495 | 33126 ft | 440 kts | 118° |
| 2026-04-21 07:48 | 42.28504 | -0.44800 | 32671 ft | 436 kts | 118° |
| 2026-04-21 07:48 | 42.27166 | -0.41142 | 32221 ft | 432 kts | 118° |
| 2026-04-21 07:48 | 42.25835 | -0.37513 | 31729 ft | 429 kts | 118° |
| 2026-04-21 07:49 | 42.24516 | -0.33915 | 31272 ft | 427 kts | 118° |
| 2026-04-21 07:49 | 42.23200 | -0.30334 | 30811 ft | 424 kts | 118° |
| 2026-04-21 07:49 | 42.21891 | -0.26776 | 30354 ft | 422 kts | 118° |
| 2026-04-21 07:49 | 42.20587 | -0.23234 | 29843 ft | 421 kts | 117° |
| 2026-04-21 07:50 | 42.19302 | -0.19753 | 29294 ft | 419 kts | 117° |
| 2026-04-21 07:50 | 42.18010 | -0.16253 | 28891 ft | 414 kts | 117° |
| 2026-04-21 07:50 | 42.16733 | -0.12799 | 28450 ft | 410 kts | 117° |
| 2026-04-21 07:50 | 42.15468 | -0.09382 | 28022 ft | 403 kts | 117° |
| 2026-04-21 07:51 | 42.14224 | -0.06024 | 27591 ft | 397 kts | 117° |
| 2026-04-21 07:51 | 42.12998 | -0.02721 | 27187 ft | 391 kts | 118° |
| 2026-04-21 07:51 | 42.11791 | 0.00529 | 26772 ft | 385 kts | 118° |
| 2026-04-21 07:51 | 42.10602 | 0.03726 | 26376 ft | 379 kts | 118° |
| 2026-04-21 07:52 | 42.09427 | 0.06881 | 25982 ft | 374 kts | 118° |
| 2026-04-21 07:52 | 42.08283 | 0.09952 | 25605 ft | 369 kts | 118° |
| 2026-04-21 07:52 | 42.07139 | 0.13018 | 25212 ft | 364 kts | 118° |
| 2026-04-21 07:52 | 42.06006 | 0.16051 | 24838 ft | 361 kts | 118° |
| 2026-04-21 07:53 | 42.04871 | 0.19086 | 24440 ft | 363 kts | 118° |
| 2026-04-21 07:53 | 42.03737 | 0.22113 | 24102 ft | 362 kts | 118° |
| 2026-04-21 07:53 | 42.02604 | 0.25138 | 23734 ft | 360 kts | 118° |
| 2026-04-21 07:53 | 42.01480 | 0.28134 | 23336 ft | 358 kts | 118° |
| 2026-04-21 07:54 | 42.00360 | 0.31115 | 22906 ft | 355 kts | 118° |
| 2026-04-21 07:54 | 41.99246 | 0.34077 | 22529 ft | 353 kts | 118° |
| 2026-04-21 07:54 | 41.98143 | 0.37016 | 22156 ft | 351 kts | 116° |
| 2026-04-21 07:54 | 41.97311 | 0.40088 | 21729 ft | 349 kts | 107° |
| 2026-04-21 07:55 | 41.96576 | 0.43174 | 21395 ft | 346 kts | 109° |
| 2026-04-21 07:55 | 41.95809 | 0.46248 | 21056 ft | 346 kts | 109° |
| 2026-04-21 07:55 | 41.95046 | 0.49256 | 20709 ft | 344 kts | 110° |
| 2026-04-21 07:55 | 41.94268 | 0.52284 | 20348 ft | 342 kts | 110° |
| 2026-04-21 07:56 | 41.93491 | 0.55291 | 19999 ft | 339 kts | 110° |
| 2026-04-21 07:56 | 41.92715 | 0.58281 | 19644 ft | 338 kts | 110° |
| 2026-04-21 07:56 | 41.91944 | 0.61249 | 19283 ft | 336 kts | 110° |
| 2026-04-21 07:56 | 41.91177 | 0.64196 | 18941 ft | 334 kts | 110° |
| 2026-04-21 07:57 | 41.90412 | 0.67131 | 18595 ft | 331 kts | 110° |
| 2026-04-21 07:57 | 41.89655 | 0.70032 | 18270 ft | 327 kts | 110° |
| 2026-04-21 07:57 | 41.88905 | 0.72904 | 17888 ft | 325 kts | 110° |
| 2026-04-21 07:57 | 41.88158 | 0.75757 | 17540 ft | 323 kts | 110° |
| 2026-04-21 07:58 | 41.87411 | 0.78610 | 17197 ft | 325 kts | 110° |
| 2026-04-21 07:58 | 41.86663 | 0.81466 | 16857 ft | 324 kts | 110° |
| 2026-04-21 07:58 | 41.85917 | 0.84305 | 16513 ft | 322 kts | 110° |
| 2026-04-21 07:58 | 41.85178 | 0.87119 | 16187 ft | 318 kts | 110° |
| 2026-04-21 07:59 | 41.84444 | 0.89909 | 15856 ft | 316 kts | 110° |
| 2026-04-21 07:59 | 41.83711 | 0.92692 | 15521 ft | 316 kts | 110° |
| 2026-04-21 07:59 | 41.82981 | 0.95460 | 15191 ft | 313 kts | 110° |
| 2026-04-21 07:59 | 41.82267 | 0.98165 | 14868 ft | 310 kts | 110° |
| 2026-04-21 08:00 | 41.81546 | 1.00893 | 14549 ft | 310 kts | 110° |
| 2026-04-21 08:00 | 41.80824 | 1.03621 | 14232 ft | 310 kts | 110° |
| 2026-04-21 08:00 | 41.80103 | 1.06345 | 13905 ft | 310 kts | 110° |
| 2026-04-21 08:00 | 41.79382 | 1.09064 | 13557 ft | 309 kts | 110° |
| 2026-04-21 08:01 | 41.78570 | 1.11727 | 13187 ft | 307 kts | 123° |
| 2026-04-21 08:01 | 41.77141 | 1.13786 | 12815 ft | 300 kts | 145° |
| 2026-04-21 08:01 | 41.75467 | 1.15413 | 12542 ft | 295 kts | 145° |
| 2026-04-21 08:02 | 41.72175 | 1.18623 | 11965 ft | 294 kts | 146° |
| 2026-04-21 08:02 | 41.70546 | 1.20196 | 11668 ft | 293 kts | 146° |
| 2026-04-21 08:02 | 41.68889 | 1.21788 | 11363 ft | 293 kts | 146° |
| 2026-04-21 08:02 | 41.67232 | 1.23379 | 11065 ft | 293 kts | 146° |
| 2026-04-21 08:03 | 41.65575 | 1.24967 | 10758 ft | 292 kts | 146° |
| 2026-04-21 08:03 | 41.63928 | 1.26543 | 10447 ft | 289 kts | 146° |
| 2026-04-21 08:03 | 41.62295 | 1.28107 | 10152 ft | 287 kts | 146° |
| 2026-04-21 08:03 | 41.60680 | 1.29650 | 9867 ft | 284 kts | 146° |
| 2026-04-21 08:04 | 41.59081 | 1.31178 | 9588 ft | 281 kts | 146° |
| 2026-04-21 08:04 | 41.57490 | 1.32697 | 9349 ft | 282 kts | 146° |
| 2026-04-21 08:04 | 41.55897 | 1.34218 | 9108 ft | 281 kts | 146° |
| 2026-04-21 08:04 | 41.54325 | 1.35716 | 8870 ft | 281 kts | 145° |
| 2026-04-21 08:05 | 41.52736 | 1.37231 | 8624 ft | 280 kts | 146° |
| 2026-04-21 08:05 | 41.51156 | 1.38736 | 8388 ft | 279 kts | 146° |
| 2026-04-21 08:05 | 41.49581 | 1.40235 | 8145 ft | 278 kts | 145° |
| 2026-04-21 08:05 | 41.48010 | 1.41731 | 7910 ft | 277 kts | 146° |
| 2026-04-21 08:06 | 41.46445 | 1.43219 | 7664 ft | 276 kts | 145° |
| 2026-04-21 08:06 | 41.44884 | 1.44701 | 7440 ft | 275 kts | 145° |
| 2026-04-21 08:06 | 41.43331 | 1.46178 | 7196 ft | 274 kts | 146° |
| 2026-04-21 08:06 | 41.41774 | 1.47656 | 6969 ft | 273 kts | 145° |
| 2026-04-21 08:07 | 41.40229 | 1.49121 | 6706 ft | 272 kts | 145° |
| 2026-04-21 08:07 | 41.38701 | 1.50570 | 6475 ft | 267 kts | 145° |
| 2026-04-21 08:07 | 41.37193 | 1.51999 | 6241 ft | 264 kts | 144° |
| 2026-04-21 08:07 | 41.35699 | 1.53379 | 6004 ft | 259 kts | 150° |
| 2026-04-21 08:08 | 41.34025 | 1.54007 | 5740 ft | 253 kts | 181° |
| 2026-04-21 08:08 | 41.32350 | 1.53465 | 5543 ft | 245 kts | 206° |
| 2026-04-21 08:08 | 41.30834 | 1.52503 | 5359 ft | 239 kts | 206° |
| 2026-04-21 08:08 | 41.29348 | 1.51564 | 5158 ft | 234 kts | 206° |
| 2026-04-21 08:09 | 41.27891 | 1.50634 | 4943 ft | 231 kts | 206° |
| 2026-04-21 08:09 | 41.26456 | 1.49716 | 4744 ft | 226 kts | 206° |
| 2026-04-21 08:09 | 41.25067 | 1.48822 | 4574 ft | 218 kts | 207° |
| 2026-04-21 08:09 | 41.23902 | 1.47591 | 4324 ft | 214 kts | 234° |
| 2026-04-21 08:10 | 41.23229 | 1.45868 | 4125 ft | 207 kts | 247° |
| 2026-04-21 08:10 | 41.22698 | 1.44115 | 3925 ft | 202 kts | 248° |
| 2026-04-21 08:10 | 41.22194 | 1.42389 | 3756 ft | 199 kts | 248° |
| 2026-04-21 08:10 | 41.21705 | 1.40701 | 3578 ft | 192 kts | 249° |
| 2026-04-21 08:11 | 41.21233 | 1.39062 | 3375 ft | 188 kts | 248° |
| 2026-04-21 08:11 | 41.20759 | 1.37454 | 3139 ft | 185 kts | 248° |
| 2026-04-21 08:11 | 41.20303 | 1.35885 | 2954 ft | 181 kts | 248° |
| 2026-04-21 08:11 | 41.19869 | 1.34396 | 2741 ft | 165 kts | 248° |
| 2026-04-21 08:12 | 41.19463 | 1.32992 | 2540 ft | 162 kts | 248° |
| 2026-04-21 08:12 | 41.19056 | 1.31604 | 2334 ft | 161 kts | 247° |
| 2026-04-21 08:12 | 41.18664 | 1.30242 | 2165 ft | 151 kts | 247° |
| 2026-04-21 08:12 | 41.18295 | 1.28972 | 1944 ft | 144 kts | 247° |
| 2026-04-21 08:13 | 41.17940 | 1.27742 | 1735 ft | 142 kts | 248° |
| 2026-04-21 08:13 | 41.17701 | 1.26913 | 1608 ft | 142 kts | 248° |
| 2026-04-21 08:13 | 41.17351 | 1.25707 | 1422 ft | 142 kts | 248° |
| 2026-04-21 08:13 | 41.16989 | 1.24479 | 1218 ft | 143 kts | 247° |
| 2026-04-21 08:14 | 41.16627 | 1.23256 | 1016 ft | 144 kts | 250° |
| 2026-04-21 08:14 | 41.16294 | 1.22016 | 881 ft | 141 kts | 248° |
| 2026-04-21 08:14 | 41.15929 | 1.20824 | 692 ft | 140 kts | 246° |
| 2026-04-21 08:14 | 41.15580 | 1.19604 | 507 ft | 143 kts | 250° |
| 2026-04-21 08:15 | 41.15222 | 1.18367 | 302 ft | 143 kts | 248° |
| 2026-04-21 08:15 | 41.14881 | 1.17230 | 244 ft | 114 kts | 249° |
| 2026-04-21 08:15 | 41.14673 | 1.16498 | 244 ft | 59 kts | 249° |
| 2026-04-21 08:15 | 41.14568 | 1.16134 | 244 ft | 35 kts | 250° |
| 2026-04-21 08:16 | 41.14538 | 1.15925 | 244 ft | 14 kts | 307° |
| 2026-04-21 08:16 | 41.14633 | 1.15864 | 244 ft | 16 kts | 319° |
| 2026-04-21 08:16 | 41.14668 | 1.15781 | 244 ft | 8 kts | 321° |
| 2026-04-21 08:16 | 41.14688 | 1.15769 | 244 ft | 4 kts | 339° |
| 2026-04-21 08:17 | 41.14714 | 1.15755 | 244 ft | 3 kts | 338° |
| 2026-04-21 08:17 | 41.14726 | 1.15749 | 244 ft | 1 kts | 339° |
| 2026-04-21 08:17 | 41.14727 | 1.15749 | 244 ft | 0 kts | 339° |